Time;durP1;ratioP1;P1;durP2;ratioP2;P2;SDS_P1;SDS_P2;PMS_P1;PMS_P2;Temp;Humidity;BMP_temperature;BMP_pressure;BME280_temperature;BME280_humidity;BME280_pressure;Samples;Min_cycle;Max_cycle;Signal;HPM_P1;HPM_P2
2023/08/20 00:01:09;;;;;;;5.83;5.27;;;;;;;;;;4993242;28;20203;-80
2023/08/20 00:03:43;;;;;;;5.83;5.23;;;;;;;;;;5025085;28;20199;-82
2023/08/20 00:06:15;;;;;;;5.93;5.33;;;;;;;;;;4992744;28;20190;-82
2023/08/20 00:08:42;;;;;;;6.43;5.20;;;;;;;;;;5009048;28;20255;-78
2023/08/20 00:11:12;;;;;;;6.40;5.13;;;;;;;;;;5005997;28;20187;-78
2023/08/20 00:13:44;;;;;;;5.90;5.30;;;;;;;;;;5022812;28;20206;-78
2023/08/20 00:16:11;;;;;;;7.20;5.37;;;;;;;;;;5011706;28;20188;-78
2023/08/20 00:18:39;;;;;;;5.53;4.97;;;;;;;;;;5028112;28;20183;-78
2023/08/20 00:21:06;;;;;;;7.20;5.40;;;;;;;;;;5024392;28;20195;-78
2023/08/20 00:23:32;;;;;;;6.90;5.60;;;;;;;;;;5010087;28;20198;-78
2023/08/20 00:26:00;;;;;;;6.37;5.67;;;;;;;;;;5018014;28;20380;-78
2023/08/20 00:28:26;;;;;;;6.47;5.70;;;;;;;;;;5011273;28;20210;-78
2023/08/20 00:30:53;;;;;;;7.10;5.60;;;;;;;;;;4990382;28;20486;-78
2023/08/20 00:33:20;;;;;;;6.17;5.53;;;;;;;;;;4998509;28;20194;-78
2023/08/20 00:35:47;;;;;;;6.70;5.80;;;;;;;;;;5026895;28;20245;-78
2023/08/20 00:38:14;;;;;;;8.73;5.70;;;;;;;;;;5011878;28;20707;-78
2023/08/20 00:40:40;;;;;;;8.53;6.10;;;;;;;;;;4984234;28;20733;-78
2023/08/20 00:43:07;;;;;;;6.40;5.80;;;;;;;;;;5014741;28;20280;-78
2023/08/20 00:45:34;;;;;;;8.13;6.10;;;;;;;;;;5023226;28;20232;-78
2023/08/20 00:48:01;;;;;;;6.53;5.37;;;;;;;;;;5017709;28;20250;-78
2023/08/20 00:50:28;;;;;;;6.57;5.97;;;;;;;;;;5002769;28;20597;-78
2023/08/20 00:52:58;;;;;;;6.40;5.80;;;;;;;;;;5009149;28;20272;-78
2023/08/20 00:55:26;;;;;;;8.87;6.20;;;;;;;;;;5001165;28;20199;-78
2023/08/20 00:57:52;;;;;;;7.23;6.07;;;;;;;;;;4994464;28;20248;-78
2023/08/20 01:00:19;;;;;;;8.73;5.87;;;;;;;;;;5013171;28;20242;-78
2023/08/20 01:02:46;;;;;;;7.90;6.10;;;;;;;;;;5028672;28;20179;-78
2023/08/20 01:05:13;;;;;;;8.33;5.67;;;;;;;;;;5026516;28;20678;-78
2023/08/20 01:07:54;;;;;;;6.60;5.70;;;;;;;;;;5000398;28;20793;-78
2023/08/20 01:10:43;;;;;;;7.37;6.10;;;;;;;;;;5006885;28;20530;-78
2023/08/20 01:13:10;;;;;;;7.30;6.03;;;;;;;;;;5026461;23;20686;-86
2023/08/20 01:15:36;;;;;;;7.20;6.17;;;;;;;;;;5028984;28;20242;-86
2023/08/20 01:18:02;;;;;;;8.57;6.13;;;;;;;;;;5032019;28;20279;-86
2023/08/20 01:20:34;;;;;;;8.23;6.30;;;;;;;;;;5015490;28;20237;-85
2023/08/20 01:23:11;;;;;;;7.60;6.10;;;;;;;;;;5018500;28;20187;-86
2023/08/20 01:25:54;;;;;;;6.87;5.80;;;;;;;;;;5017873;28;20186;-86
2023/08/20 01:28:23;;;;;;;7.67;6.20;;;;;;;;;;5032020;28;20211;-87
2023/08/20 01:30:49;;;;;;;6.67;6.07;;;;;;;;;;5032557;28;20188;-87
2023/08/20 01:33:16;;;;;;;7.10;5.97;;;;;;;;;;5017362;28;20206;-86
2023/08/20 01:35:42;;;;;;;7.60;6.30;;;;;;;;;;5000376;28;20198;-86
2023/08/20 01:38:15;;;;;;;6.67;6.00;;;;;;;;;;5014741;28;20208;-86
2023/08/20 01:40:41;;;;;;;9.23;6.30;;;;;;;;;;5014941;28;20255;-87
2023/08/20 01:43:07;;;;;;;6.43;5.83;;;;;;;;;;4996029;28;20608;-86
2023/08/20 01:45:33;;;;;;;7.10;6.40;;;;;;;;;;5017614;28;20257;-86
2023/08/20 01:48:00;;;;;;;6.90;6.27;;;;;;;;;;4996848;28;20211;-86
2023/08/20 01:50:26;;;;;;;7.20;6.50;;;;;;;;;;5038826;28;20177;-86
2023/08/20 01:52:52;;;;;;;8.77;6.10;;;;;;;;;;5014732;28;20195;-86
2023/08/20 01:55:18;;;;;;;7.30;5.87;;;;;;;;;;5028916;28;20203;-86
2023/08/20 01:57:44;;;;;;;6.43;5.57;;;;;;;;;;5001263;28;20183;-86
2023/08/20 02:00:11;;;;;;;6.60;6.00;;;;;;;;;;4998428;28;20196;-86
2023/08/20 02:02:40;;;;;;;7.27;6.30;;;;;;;;;;5011330;28;20332;-86
2023/08/20 02:05:06;;;;;;;6.57;5.87;;;;;;;;;;5027873;28;20219;-86
2023/08/20 02:07:32;;;;;;;9.10;6.57;;;;;;;;;;5001520;28;20213;-86
2023/08/20 02:09:59;;;;;;;7.83;6.50;;;;;;;;;;5019841;28;20182;-86
2023/08/20 02:12:28;;;;;;;7.73;6.60;;;;;;;;;;5001587;28;20184;-86
2023/08/20 02:14:55;;;;;;;7.63;6.80;;;;;;;;;;4997751;28;20626;-86
2023/08/20 02:17:23;;;;;;;9.90;6.53;;;;;;;;;;4997831;28;20195;-86
2023/08/20 02:19:49;;;;;;;7.43;6.70;;;;;;;;;;5005634;28;20194;-86
2023/08/20 02:22:17;;;;;;;8.27;6.40;;;;;;;;;;5030504;28;20184;-86
2023/08/20 02:24:43;;;;;;;8.87;6.57;;;;;;;;;;5003834;28;20229;-87
2023/08/20 02:27:09;;;;;;;7.70;6.27;;;;;;;;;;5029350;28;20210;-86
2023/08/20 02:29:35;;;;;;;7.23;6.50;;;;;;;;;;5002921;28;20282;-86
2023/08/20 02:32:01;;;;;;;7.73;6.23;;;;;;;;;;5030965;28;20183;-86
2023/08/20 02:34:29;;;;;;;8.33;6.27;;;;;;;;;;5017320;28;20672;-86
2023/08/20 02:36:57;;;;;;;9.37;6.07;;;;;;;;;;5018800;28;20194;-86
2023/08/20 02:39:24;;;;;;;7.00;6.30;;;;;;;;;;5015204;28;20191;-87
2023/08/20 02:41:50;;;;;;;7.37;6.63;;;;;;;;;;5025509;28;20353;-86
2023/08/20 02:44:17;;;;;;;9.63;6.57;;;;;;;;;;5020160;28;20686;-86
2023/08/20 02:46:44;;;;;;;9.50;6.50;;;;;;;;;;5020368;28;21517;-87
2023/08/20 02:49:10;;;;;;;7.63;6.77;;;;;;;;;;5016680;28;20700;-85
2023/08/20 02:51:37;;;;;;;6.60;6.00;;;;;;;;;;4998608;28;20714;-86
2023/08/20 02:54:03;;;;;;;7.77;6.70;;;;;;;;;;5024413;28;20206;-86
2023/08/20 02:56:29;;;;;;;7.27;6.57;;;;;;;;;;4999667;28;20199;-86
2023/08/20 02:58:55;;;;;;;8.53;6.83;;;;;;;;;;5015414;28;20618;-86
2023/08/20 03:01:23;;;;;;;8.40;6.63;;;;;;;;;;5001410;28;20592;-87
2023/08/20 03:03:50;;;;;;;9.27;6.70;;;;;;;;;;5028017;28;20210;-86
2023/08/20 03:06:16;;;;;;;6.87;6.10;;;;;;;;;;5020600;28;20223;-87
2023/08/20 03:08:42;;;;;;;7.47;6.63;;;;;;;;;;5035320;28;20241;-86
2023/08/20 03:11:08;;;;;;;8.03;6.60;;;;;;;;;;5005143;28;20186;-86
2023/08/20 03:13:35;;;;;;;9.33;6.77;;;;;;;;;;5005022;28;20734;-86
2023/08/20 03:16:03;;;;;;;6.77;6.07;;;;;;;;;;5002843;28;20182;-86
2023/08/20 03:18:29;;;;;;;7.67;5.97;;;;;;;;;;5014502;28;20191;-86
2023/08/20 03:20:56;;;;;;;6.40;5.80;;;;;;;;;;5030229;28;20188;-88
2023/08/20 03:23:23;;;;;;;7.67;6.57;;;;;;;;;;5015958;28;20223;-87
2023/08/20 03:25:50;;;;;;;7.50;6.57;;;;;;;;;;5019624;28;20216;-86
2023/08/20 03:28:18;;;;;;;7.27;6.60;;;;;;;;;;4997715;28;20699;-86
2023/08/20 03:30:44;;;;;;;7.77;6.47;;;;;;;;;;5012164;28;20198;-86
2023/08/20 03:33:13;;;;;;;7.17;6.10;;;;;;;;;;4999122;28;20244;-86
2023/08/20 03:35:40;;;;;;;7.87;6.57;;;;;;;;;;4999207;28;20183;-87
2023/08/20 03:38:06;;;;;;;8.00;7.20;;;;;;;;;;5038666;28;20197;-86
2023/08/20 03:40:33;;;;;;;6.87;6.17;;;;;;;;;;5013574;28;20557;-86
2023/08/20 03:42:59;;;;;;;7.70;5.87;;;;;;;;;;5036492;28;20186;-86
2023/08/20 03:45:26;;;;;;;7.27;6.50;;;;;;;;;;5001926;28;20198;-86
2023/08/20 03:47:53;;;;;;;7.60;6.70;;;;;;;;;;5020020;28;20210;-87
2023/08/20 03:50:19;;;;;;;8.07;6.67;;;;;;;;;;5019809;28;20598;-86
2023/08/20 03:52:46;;;;;;;9.90;6.83;;;;;;;;;;5015744;28;20186;-87
2023/08/20 03:55:12;;;;;;;7.23;6.50;;;;;;;;;;5000214;28;20305;-85
2023/08/20 03:57:38;;;;;;;7.53;6.03;;;;;;;;;;4997043;28;20181;-86
2023/08/20 04:00:08;;;;;;;7.83;6.30;;;;;;;;;;5030155;28;20187;-85
2023/08/20 04:02:42;;;;;;;7.27;6.57;;;;;;;;;;5016063;28;20661;-86
2023/08/20 04:05:08;;;;;;;8.73;6.90;;;;;;;;;;5044557;28;20228;-86
2023/08/20 04:07:34;;;;;;;8.03;6.43;;;;;;;;;;5036823;28;20207;-86
2023/08/20 04:10:01;;;;;;;7.50;6.80;;;;;;;;;;4997682;28;20244;-86
2023/08/20 04:12:27;;;;;;;7.43;6.40;;;;;;;;;;4999782;28;20187;-85
2023/08/20 04:14:56;;;;;;;7.93;6.50;;;;;;;;;;5012821;28;20222;-86
2023/08/20 04:17:22;;;;;;;7.57;6.20;;;;;;;;;;5029742;28;20191;-85
2023/08/20 04:19:51;;;;;;;6.90;6.30;;;;;;;;;;5044438;28;20201;-87
2023/08/20 04:22:17;;;;;;;9.00;6.07;;;;;;;;;;5013088;28;20553;-85
2023/08/20 04:24:43;;;;;;;7.00;6.40;;;;;;;;;;5002158;28;20686;-86
2023/08/20 04:27:10;;;;;;;9.33;6.47;;;;;;;;;;5010587;28;20182;-86
2023/08/20 04:29:38;;;;;;;7.00;6.40;;;;;;;;;;5013171;28;20643;-86
2023/08/20 04:32:05;;;;;;;8.23;6.97;;;;;;;;;;5034537;28;20183;-86
2023/08/20 04:34:31;;;;;;;12.20;6.97;;;;;;;;;;5021502;28;20281;-86
2023/08/20 04:36:57;;;;;;;7.87;6.60;;;;;;;;;;5010832;28;20189;-85
2023/08/20 04:39:24;;;;;;;8.77;7.90;;;;;;;;;;5012218;28;20194;-87
2023/08/20 04:41:52;;;;;;;8.83;7.23;;;;;;;;;;5010482;28;20190;-86
2023/08/20 04:44:21;;;;;;;10.93;7.87;;;;;;;;;;5017755;28;20222;-87
2023/08/20 04:46:49;;;;;;;10.23;7.77;;;;;;;;;;5011419;28;20182;-85
2023/08/20 04:49:15;;;;;;;11.40;8.97;;;;;;;;;;5015829;28;20264;-86
2023/08/20 04:51:41;;;;;;;9.47;8.47;;;;;;;;;;5031194;28;20201;-86
2023/08/20 04:54:07;;;;;;;12.00;8.73;;;;;;;;;;5012360;28;20199;-86
2023/08/20 04:56:33;;;;;;;8.97;8.10;;;;;;;;;;4994513;28;20194;-86
2023/08/20 04:58:59;;;;;;;9.43;8.50;;;;;;;;;;5012156;28;20190;-86
2023/08/20 05:01:49;;;;;;;10.73;8.50;;;;;;;;;;5009942;28;20665;-85
2023/08/20 05:04:17;;;;;;;10.27;8.33;;;;;;;;;;5014297;28;20210;-85
2023/08/20 05:06:43;;;;;;;9.80;7.67;;;;;;;;;;5003992;28;20586;-86
2023/08/20 05:09:09;;;;;;;10.73;8.73;;;;;;;;;;5018027;28;20281;-85
2023/08/20 05:11:35;;;;;;;9.07;8.00;;;;;;;;;;4998627;28;20183;-85
2023/08/20 05:14:01;;;;;;;9.57;8.20;;;;;;;;;;5018510;28;20221;-86
2023/08/20 05:16:27;;;;;;;9.70;7.90;;;;;;;;;;4993826;28;20175;-85
2023/08/20 05:18:54;;;;;;;9.40;8.43;;;;;;;;;;5012352;28;20186;-86
2023/08/20 05:21:20;;;;;;;9.07;7.80;;;;;;;;;;4995565;28;20206;-88
2023/08/20 05:23:47;;;;;;;9.90;8.83;;;;;;;;;;5004086;28;20296;-86
2023/08/20 05:26:13;;;;;;;10.70;8.70;;;;;;;;;;4995250;28;20640;-85
2023/08/20 05:28:39;;;;;;;9.03;7.43;;;;;;;;;;5013353;28;20210;-86
2023/08/20 05:31:05;;;;;;;8.80;7.70;;;;;;;;;;4995445;28;20214;-86
2023/08/20 05:33:32;;;;;;;8.60;7.70;;;;;;;;;;4995785;28;20202;-86
2023/08/20 05:35:59;;;;;;;7.73;7.00;;;;;;;;;;4993795;28;20637;-87
2023/08/20 05:38:26;;;;;;;8.50;7.67;;;;;;;;;;5014117;28;20253;-86
2023/08/20 05:40:52;;;;;;;10.63;7.33;;;;;;;;;;5027989;28;20564;-86
2023/08/20 05:43:18;;;;;;;8.30;7.50;;;;;;;;;;5028928;28;20191;-86
2023/08/20 05:45:45;;;;;;;8.43;7.60;;;;;;;;;;4991705;28;20195;-90
2023/08/20 05:48:16;;;;;;;9.03;8.17;;;;;;;;;;4994691;28;20301;-86
2023/08/20 05:50:42;;;;;;;10.73;8.00;;;;;;;;;;5029652;28;20188;-86
2023/08/20 05:53:08;;;;;;;8.47;7.57;;;;;;;;;;5027959;28;20949;-85
2023/08/20 05:55:35;;;;;;;9.40;8.20;;;;;;;;;;5009470;28;20190;-85
2023/08/20 05:58:01;;;;;;;8.87;7.97;;;;;;;;;;5031681;28;20266;-86
2023/08/20 06:00:27;;;;;;;8.73;7.67;;;;;;;;;;5018670;28;20198;-87
2023/08/20 06:02:53;;;;;;;9.60;8.60;;;;;;;;;;5027779;28;20210;-86
2023/08/20 06:05:20;;;;;;;9.47;8.47;;;;;;;;;;5016088;28;20218;-86
2023/08/20 06:07:46;;;;;;;9.20;8.20;;;;;;;;;;4999146;28;20220;-86
2023/08/20 06:10:12;;;;;;;13.63;8.80;;;;;;;;;;5019493;28;20192;-85
2023/08/20 06:12:38;;;;;;;11.00;9.30;;;;;;;;;;5037223;28;20551;-86
2023/08/20 06:15:05;;;;;;;10.77;9.10;;;;;;;;;;5016508;28;20265;-86
2023/08/20 06:17:32;;;;;;;10.47;9.47;;;;;;;;;;5032962;28;20183;-86
2023/08/20 06:19:58;;;;;;;11.10;8.87;;;;;;;;;;5035986;28;20642;-86
2023/08/20 06:22:24;;;;;;;9.80;8.80;;;;;;;;;;5034346;28;20286;-86
2023/08/20 06:24:50;;;;;;;10.80;9.70;;;;;;;;;;5000617;28;20226;-86
2023/08/20 06:27:16;;;;;;;9.77;8.73;;;;;;;;;;5032789;28;20670;-85
2023/08/20 06:29:43;;;;;;;10.57;9.47;;;;;;;;;;5021127;28;20238;-86
2023/08/20 06:32:09;;;;;;;11.87;9.07;;;;;;;;;;5020332;28;20245;-86
2023/08/20 06:34:36;;;;;;;9.80;8.80;;;;;;;;;;5035495;28;20682;-85
2023/08/20 06:37:02;;;;;;;10.10;9.07;;;;;;;;;;5022886;28;20192;-86
2023/08/20 06:39:28;;;;;;;9.60;8.70;;;;;;;;;;5016545;28;20237;-86
2023/08/20 06:41:54;;;;;;;11.33;9.37;;;;;;;;;;5004653;28;20184;-87
2023/08/20 06:44:20;;;;;;;11.00;8.90;;;;;;;;;;5003651;28;20556;-85
2023/08/20 06:46:47;;;;;;;10.27;8.40;;;;;;;;;;5015518;28;20200;-87
2023/08/20 06:49:13;;;;;;;9.50;8.50;;;;;;;;;;5034770;28;20206;-86
2023/08/20 06:51:39;;;;;;;8.80;7.97;;;;;;;;;;5018915;28;20171;-86
2023/08/20 06:54:06;;;;;;;9.97;8.83;;;;;;;;;;5005537;28;20205;-86
2023/08/20 06:56:33;;;;;;;9.93;8.80;;;;;;;;;;5018187;28;20193;-77
2023/08/20 06:58:59;;;;;;;9.30;8.47;;;;;;;;;;5041894;28;20283;-78
2023/08/20 07:01:25;;;;;;;10.57;8.50;;;;;;;;;;5034084;28;20201;-78
2023/08/20 07:03:52;;;;;;;9.00;8.10;;;;;;;;;;5031331;28;20276;-77
2023/08/20 07:06:18;;;;;;;10.17;8.63;;;;;;;;;;5030001;28;20415;-77
2023/08/20 07:08:44;;;;;;;10.57;8.20;;;;;;;;;;5021576;28;20595;-79
2023/08/20 07:11:10;;;;;;;9.40;8.40;;;;;;;;;;5034735;28;20239;-79
2023/08/20 07:13:40;;;;;;;9.20;8.10;;;;;;;;;;5057062;22;20209;-75
2023/08/20 07:16:06;;;;;;;8.73;7.93;;;;;;;;;;5042352;28;20286;-77
2023/08/20 07:18:32;;;;;;;11.13;7.60;;;;;;;;;;5025818;28;20184;-76
2023/08/20 07:20:58;;;;;;;9.70;8.00;;;;;;;;;;5027283;28;20192;-77
2023/08/20 07:23:25;;;;;;;9.70;7.90;;;;;;;;;;5034628;28;20186;-77
2023/08/20 07:25:54;;;;;;;8.23;7.50;;;;;;;;;;5027387;28;20550;-77
2023/08/20 07:28:56;;;;;;;8.30;7.40;;;;;;;;;;5026503;28;20216;-76
2023/08/20 07:31:06;;;;;;;8.40;7.37;;;;;;;;;;5031041;28;20653;-76
2023/08/20 07:33:32;;;;;;;7.30;6.60;;;;;;;;;;5014869;28;20214;-77
2023/08/20 07:35:58;;;;;;;8.63;7.83;;;;;;;;;;5032113;28;20810;-77
2023/08/20 07:38:25;;;;;;;8.00;7.30;;;;;;;;;;5019967;28;20215;-77
2023/08/20 07:40:51;;;;;;;7.80;7.10;;;;;;;;;;5030143;28;20177;-76
2023/08/20 07:43:17;;;;;;;8.50;7.70;;;;;;;;;;5029774;28;20192;-77
2023/08/20 07:45:43;;;;;;;8.50;7.80;;;;;;;;;;5033174;28;20218;-77
2023/08/20 07:48:09;;;;;;;12.33;8.37;;;;;;;;;;5022885;28;20207;-78
2023/08/20 07:50:35;;;;;;;9.77;7.60;;;;;;;;;;4998283;28;20193;-76
2023/08/20 07:53:02;;;;;;;9.73;7.13;;;;;;;;;;5022524;28;20186;-76
2023/08/20 07:55:28;;;;;;;9.07;7.23;;;;;;;;;;5029207;28;20202;-76
2023/08/20 07:57:54;;;;;;;8.43;7.47;;;;;;;;;;5029115;28;20180;-76
2023/08/20 08:00:20;;;;;;;7.83;7.00;;;;;;;;;;5031820;28;20217;-76
2023/08/20 08:02:46;;;;;;;8.33;7.53;;;;;;;;;;5041533;28;20260;-76
2023/08/20 08:05:14;;;;;;;8.57;7.57;;;;;;;;;;5029457;28;20193;-76
2023/08/20 08:07:40;;;;;;;10.33;7.70;;;;;;;;;;5031114;28;20217;-75
2023/08/20 08:10:06;;;;;;;10.37;7.50;;;;;;;;;;5030689;28;20185;-75
2023/08/20 08:12:32;;;;;;;9.00;8.10;;;;;;;;;;5031645;28;20182;-76
2023/08/20 08:14:59;;;;;;;9.33;8.23;;;;;;;;;;5028525;28;20250;-76
2023/08/20 08:17:25;;;;;;;8.63;7.70;;;;;;;;;;5022896;28;20198;-76
2023/08/20 08:19:53;;;;;;;9.43;8.10;;;;;;;;;;5030118;28;20266;-76
2023/08/20 08:22:19;;;;;;;10.07;7.57;;;;;;;;;;5030537;28;20578;-75
2023/08/20 08:24:46;;;;;;;9.70;8.33;;;;;;;;;;5026369;28;20201;-76
2023/08/20 08:27:12;;;;;;;8.80;7.87;;;;;;;;;;5024494;28;20581;-76
2023/08/20 08:29:38;;;;;;;10.83;8.10;;;;;;;;;;5023758;28;20187;-76
2023/08/20 08:32:04;;;;;;;9.23;8.33;;;;;;;;;;5029296;28;20254;-76
2023/08/20 08:34:30;;;;;;;8.53;7.63;;;;;;;;;;5024193;28;20276;-76
2023/08/20 08:36:56;;;;;;;7.70;7.00;;;;;;;;;;5027226;28;20192;-76
2023/08/20 08:39:22;;;;;;;8.30;7.50;;;;;;;;;;5021932;28;20188;-76
2023/08/20 08:41:54;;;;;;;14.77;7.60;;;;;;;;;;5026918;28;20605;-76
2023/08/20 08:44:21;;;;;;;8.43;7.47;;;;;;;;;;5030484;28;20214;-76
2023/08/20 08:46:50;;;;;;;10.03;7.47;;;;;;;;;;5029198;28;20205;-76
2023/08/20 08:49:17;;;;;;;10.30;7.47;;;;;;;;;;5024844;28;20209;-76
2023/08/20 08:51:45;;;;;;;8.57;7.80;;;;;;;;;;5026888;28;20178;-76
2023/08/20 08:54:12;;;;;;;9.33;7.43;;;;;;;;;;5019809;28;20198;-76
2023/08/20 08:56:39;;;;;;;10.13;8.33;;;;;;;;;;5027399;28;20210;-76
2023/08/20 08:59:05;;;;;;;8.63;7.83;;;;;;;;;;5029905;28;20189;-76
2023/08/20 09:01:31;;;;;;;8.30;7.60;;;;;;;;;;5033045;28;20410;-76
2023/08/20 09:03:58;;;;;;;10.70;7.37;;;;;;;;;;5032068;28;20204;-75
2023/08/20 09:06:24;;;;;;;8.80;7.90;;;;;;;;;;5011119;28;20252;-76
2023/08/20 09:09:03;;;;;;;8.47;7.67;;;;;;;;;;5025151;28;20222;-76
2023/08/20 09:11:35;;;;;;;8.03;7.27;;;;;;;;;;5028634;28;20183;-76
2023/08/20 09:14:01;;;;;;;8.20;7.40;;;;;;;;;;5039867;28;20813;-76
2023/08/20 09:16:30;;;;;;;8.00;7.20;;;;;;;;;;5024794;28;20232;-76
2023/08/20 09:18:59;;;;;;;7.60;6.90;;;;;;;;;;5025382;28;20235;-76
2023/08/20 09:21:30;;;;;;;8.37;7.47;;;;;;;;;;5031274;28;20288;-76
2023/08/20 09:24:00;;;;;;;7.73;6.93;;;;;;;;;;5023338;28;20263;-76
2023/08/20 09:26:26;;;;;;;8.57;7.77;;;;;;;;;;5029093;28;20578;-76
2023/08/20 09:28:54;;;;;;;8.57;7.60;;;;;;;;;;5011787;28;20218;-76
2023/08/20 09:31:21;;;;;;;8.53;7.70;;;;;;;;;;5022792;28;20186;-76
2023/08/20 09:33:50;;;;;;;7.93;7.13;;;;;;;;;;5020287;28;20257;-76
2023/08/20 09:36:17;;;;;;;10.07;7.87;;;;;;;;;;5038085;28;20544;-76
2023/08/20 09:38:43;;;;;;;9.03;7.70;;;;;;;;;;5019557;28;20186;-76
2023/08/20 09:41:10;;;;;;;8.10;7.37;;;;;;;;;;5026378;28;20178;-76
2023/08/20 09:43:39;;;;;;;7.90;7.10;;;;;;;;;;5028005;28;20416;-76
2023/08/20 09:46:06;;;;;;;7.80;7.00;;;;;;;;;;5026081;28;20186;-76
2023/08/20 09:48:36;;;;;;;8.20;7.50;;;;;;;;;;5031717;28;20202;-76
2023/08/20 09:51:05;;;;;;;7.53;6.83;;;;;;;;;;5029394;28;20185;-76
2023/08/20 09:53:35;;;;;;;9.47;7.10;;;;;;;;;;5037265;28;20204;-76
2023/08/20 09:56:08;;;;;;;9.57;6.93;;;;;;;;;;5024612;28;20190;-76
2023/08/20 09:58:35;;;;;;;9.00;7.40;;;;;;;;;;5028398;28;20653;-76
2023/08/20 10:01:01;;;;;;;8.23;7.13;;;;;;;;;;5028422;28;20223;-76
2023/08/20 10:03:28;;;;;;;8.37;7.23;;;;;;;;;;5044569;28;20713;-76
2023/08/20 10:05:54;;;;;;;8.63;7.37;;;;;;;;;;5028250;28;20214;-76
2023/08/20 10:08:20;;;;;;;9.17;7.07;;;;;;;;;;5024621;28;20241;-76
2023/08/20 10:10:47;;;;;;;7.97;7.17;;;;;;;;;;5021692;28;20186;-77
2023/08/20 10:13:14;;;;;;;7.20;6.60;;;;;;;;;;5023185;28;20179;-76
2023/08/20 10:15:41;;;;;;;7.30;6.70;;;;;;;;;;5024391;28;20219;-77
2023/08/20 10:18:08;;;;;;;10.23;6.63;;;;;;;;;;5021760;28;20257;-77
2023/08/20 10:20:34;;;;;;;8.37;6.17;;;;;;;;;;5020319;28;20651;-76
2023/08/20 10:23:01;;;;;;;9.97;6.83;;;;;;;;;;5000966;28;20188;-80
2023/08/20 10:25:27;;;;;;;6.60;6.00;;;;;;;;;;5007401;28;20208;-78
2023/08/20 10:27:54;;;;;;;8.20;6.43;;;;;;;;;;5023694;28;20211;-78
2023/08/20 10:30:25;;;;;;;9.67;6.80;;;;;;;;;;5027740;28;20187;-79
2023/08/20 10:32:56;;;;;;;7.13;6.43;;;;;;;;;;5025120;28;20193;-76
2023/08/20 10:35:25;;;;;;;7.87;6.53;;;;;;;;;;5028309;28;20260;-79
2023/08/20 10:38:07;;;;;;;8.63;7.13;;;;;;;;;;5032340;28;20279;-79
2023/08/20 10:40:49;;;;;;;7.53;6.17;;;;;;;;;;5019878;28;20183;-80
2023/08/20 10:43:24;;;;;;;6.83;5.90;;;;;;;;;;5030511;28;20202;-78
2023/08/20 10:46:03;;;;;;;7.40;6.60;;;;;;;;;;5031051;28;20213;-77
2023/08/20 10:48:30;;;;;;;6.70;6.10;;;;;;;;;;5030774;28;20262;-78
2023/08/20 10:50:56;;;;;;;10.13;6.37;;;;;;;;;;5038445;28;20177;-77
2023/08/20 10:53:23;;;;;;;6.97;6.27;;;;;;;;;;5029710;28;20247;-77
2023/08/20 10:55:49;;;;;;;7.97;6.30;;;;;;;;;;5031060;28;20349;-75
2023/08/20 10:58:16;;;;;;;8.47;6.40;;;;;;;;;;5029479;28;20217;-79
2023/08/20 11:00:42;;;;;;;6.80;5.60;;;;;;;;;;5033525;28;20189;-77
2023/08/20 11:03:09;;;;;;;6.70;5.93;;;;;;;;;;5034747;28;20278;-77
2023/08/20 11:05:35;;;;;;;7.10;6.17;;;;;;;;;;5034995;28;20212;-77
2023/08/20 11:08:03;;;;;;;6.57;5.97;;;;;;;;;;5044124;28;20676;-77
2023/08/20 11:10:29;;;;;;;6.50;5.93;;;;;;;;;;5031415;28;20185;-77
2023/08/20 11:12:55;;;;;;;6.00;5.47;;;;;;;;;;5029024;28;20184;-77
2023/08/20 11:15:22;;;;;;;6.50;5.90;;;;;;;;;;5034237;28;20211;-77
2023/08/20 11:17:48;;;;;;;6.30;5.70;;;;;;;;;;5028275;28;20197;-77
2023/08/20 11:20:15;;;;;;;7.23;5.80;;;;;;;;;;5031560;28;20183;-77
2023/08/20 11:22:41;;;;;;;9.27;6.00;;;;;;;;;;5031589;28;20202;-77
2023/08/20 11:25:13;;;;;;;6.20;5.70;;;;;;;;;;5028842;28;20204;-77
2023/08/20 11:27:43;;;;;;;8.63;5.50;;;;;;;;;;5031400;28;20275;-77
2023/08/20 11:30:11;;;;;;;6.97;5.63;;;;;;;;;;5033189;28;20264;-78
2023/08/20 11:32:39;;;;;;;7.77;5.40;;;;;;;;;;5023309;28;20187;-76
2023/08/20 11:35:06;;;;;;;6.00;5.50;;;;;;;;;;5027354;28;20229;-77
2023/08/20 11:37:33;;;;;;;7.17;5.80;;;;;;;;;;5028978;28;20369;-75
2023/08/20 11:39:59;;;;;;;5.87;5.30;;;;;;;;;;5027829;28;20189;-76
2023/08/20 11:42:25;;;;;;;6.10;5.50;;;;;;;;;;5024350;28;20167;-75
2023/08/20 11:44:55;;;;;;;6.90;5.30;;;;;;;;;;5032663;28;20295;-76
2023/08/20 11:47:21;;;;;;;5.77;5.27;;;;;;;;;;5044981;28;20177;-75
2023/08/20 11:49:47;;;;;;;5.07;4.67;;;;;;;;;;5026230;28;20197;-76
2023/08/20 11:52:14;;;;;;;5.67;4.97;;;;;;;;;;5032786;28;20186;-76
2023/08/20 11:54:40;;;;;;;6.80;4.73;;;;;;;;;;5008613;28;20599;-76
2023/08/20 11:57:07;;;;;;;5.23;4.73;;;;;;;;;;5021583;28;20186;-76
2023/08/20 11:59:33;;;;;;;5.23;4.67;;;;;;;;;;5023689;28;20657;-76
2023/08/20 12:02:00;;;;;;;5.00;4.60;;;;;;;;;;5034916;28;20182;-76
2023/08/20 12:04:30;;;;;;;5.17;4.33;;;;;;;;;;5016331;28;20832;-76
2023/08/20 12:07:05;;;;;;;5.77;4.87;;;;;;;;;;5027208;28;20180;-76
2023/08/20 12:09:32;;;;;;;6.30;5.27;;;;;;;;;;5039306;28;20214;-76
2023/08/20 12:11:58;;;;;;;6.50;5.00;;;;;;;;;;5028646;28;20207;-75
2023/08/20 12:14:25;;;;;;;4.90;4.40;;;;;;;;;;5030018;28;20853;-78
2023/08/20 12:16:53;;;;;;;5.63;4.43;;;;;;;;;;5026579;28;20552;-77
2023/08/20 12:19:20;;;;;;;5.27;4.27;;;;;;;;;;5030429;28;20183;-80
2023/08/20 12:21:46;;;;;;;4.83;4.03;;;;;;;;;;5027671;28;20183;-77
2023/08/20 12:24:12;;;;;;;3.93;3.43;;;;;;;;;;5024058;28;20267;-74
2023/08/20 12:26:39;;;;;;;4.47;3.83;;;;;;;;;;5029080;28;20182;-77
2023/08/20 12:29:06;;;;;;;4.67;3.30;;;;;;;;;;5017556;28;20220;-77
2023/08/20 12:31:32;;;;;;;5.27;3.60;;;;;;;;;;5026815;28;20185;-77
2023/08/20 12:33:58;;;;;;;4.83;4.43;;;;;;;;;;5023368;28;20232;-77
2023/08/20 12:36:24;;;;;;;5.17;3.70;;;;;;;;;;5021708;28;20182;-77
2023/08/20 12:38:50;;;;;;;5.30;3.90;;;;;;;;;;5027810;28;20205;-77
2023/08/20 12:41:17;;;;;;;3.93;3.63;;;;;;;;;;5026497;28;20271;-76
2023/08/20 12:43:43;;;;;;;3.93;3.20;;;;;;;;;;5025269;28;20193;-76
2023/08/20 12:46:09;;;;;;;4.00;3.30;;;;;;;;;;5032723;28;20604;-76
2023/08/20 12:48:35;;;;;;;3.95;3.25;;;;;;;;;;5022429;28;20310;-77
2023/08/20 12:51:02;;;;;;;5.07;3.40;;;;;;;;;;5034624;28;20182;-76
2023/08/20 12:53:29;;;;;;;4.17;3.50;;;;;;;;;;5041695;28;20222;-77
2023/08/20 12:55:55;;;;;;;3.50;3.20;;;;;;;;;;5023888;28;20562;-79
2023/08/20 12:58:21;;;;;;;3.40;3.10;;;;;;;;;;5026425;28;20211;-76
2023/08/20 13:00:51;;;;;;;5.60;3.77;;;;;;;;;;5029319;28;20203;-76
2023/08/20 13:03:18;;;;;;;4.60;3.40;;;;;;;;;;5028629;28;20195;-76
2023/08/20 13:05:45;;;;;;;6.77;3.73;;;;;;;;;;5026264;28;20752;-77
2023/08/20 13:08:12;;;;;;;9.88;3.90;;;;;;;;;;5030263;28;20196;-75
2023/08/20 13:10:41;;;;;;;5.55;3.70;;;;;;;;;;5029113;28;20568;-76
2023/08/20 13:13:10;;;;;;;4.18;3.78;;;;;;;;;;5027976;28;20190;-75
2023/08/20 13:15:36;;;;;;;3.63;3.28;;;;;;;;;;5067247;22;20238;-77
2023/08/20 13:18:03;;;;;;;4.72;3.53;;;;;;;;;;5060252;28;20651;-77
2023/08/20 13:20:30;;;;;;;4.60;3.40;;;;;;;;;;5064798;28;20345;-77
2023/08/20 13:22:56;;;;;;;4.75;3.50;;;;;;;;;;5060728;28;20187;-80
2023/08/20 13:25:22;;;;;;;3.60;3.30;;;;;;;;;;5050014;28;20688;-77
2023/08/20 13:27:49;;;;;;;5.88;3.55;;;;;;;;;;5042864;28;20209;-76
2023/08/20 13:30:15;;;;;;;4.20;3.40;;;;;;;;;;5045576;28;20189;-80
2023/08/20 13:32:41;;;;;;;3.90;3.50;;;;;;;;;;5049695;28;20186;-78
2023/08/20 13:35:08;;;;;;;4.65;3.50;;;;;;;;;;5045891;28;20293;-82
2023/08/20 13:37:34;;;;;;;7.03;3.10;;;;;;;;;;5026819;28;20648;-82
2023/08/20 13:40:01;;;;;;;4.57;3.60;;;;;;;;;;5044380;28;20265;-81
2023/08/20 13:42:27;;;;;;;4.88;3.10;;;;;;;;;;5045585;28;20179;-81
2023/08/20 13:44:53;;;;;;;4.25;3.30;;;;;;;;;;5044608;28;20197;-83
2023/08/20 13:47:19;;;;;;;6.95;3.53;;;;;;;;;;5044008;28;20213;-81
2023/08/20 13:49:46;;;;;;;4.72;4.07;;;;;;;;;;5045448;28;20220;-81
2023/08/20 13:52:12;;;;;;;4.70;3.45;;;;;;;;;;5051178;28;20612;-82
2023/08/20 13:54:38;;;;;;;4.82;3.88;;;;;;;;;;5046456;28;20209;-82
2023/08/20 13:57:04;;;;;;;4.07;3.65;;;;;;;;;;5041448;28;20197;-83
2023/08/20 13:59:31;;;;;;;4.68;3.58;;;;;;;;;;5041553;28;20223;-83
2023/08/20 14:01:57;;;;;;;3.83;3.53;;;;;;;;;;5043148;28;20186;-84
2023/08/20 14:04:23;;;;;;;4.25;3.40;;;;;;;;;;5040401;28;20209;-82
2023/08/20 14:06:49;;;;;;;4.22;3.80;;;;;;;;;;5040609;28;20182;-84
2023/08/20 14:09:18;;;;;;;6.78;3.90;;;;;;;;;;5035682;28;21169;-83
2023/08/20 14:11:44;;;;;;;8.15;3.78;;;;;;;;;;5055993;28;20185;-84
2023/08/20 14:14:10;;;;;;;5.30;3.50;;;;;;;;;;5033463;28;20265;-79
2023/08/20 14:16:37;;;;;;;4.28;3.53;;;;;;;;;;5036461;28;20197;-79
2023/08/20 14:19:03;;;;;;;5.07;3.17;;;;;;;;;;5037155;28;20268;-79
2023/08/20 14:21:29;;;;;;;4.28;3.20;;;;;;;;;;5041291;28;20664;-80
2023/08/20 14:23:55;;;;;;;3.50;3.20;;;;;;;;;;5041733;28;20236;-80
2023/08/20 14:26:22;;;;;;;5.32;3.85;;;;;;;;;;5040809;28;20201;-78
2023/08/20 14:28:48;;;;;;;5.55;3.15;;;;;;;;;;5029480;28;20285;-78
2023/08/20 14:31:14;;;;;;;5.15;3.90;;;;;;;;;;5044958;28;20261;-79
2023/08/20 14:33:40;;;;;;;4.90;3.20;;;;;;;;;;5043072;28;20213;-80
2023/08/20 14:36:07;;;;;;;4.68;3.63;;;;;;;;;;5042191;28;20305;-80
2023/08/20 14:38:33;;;;;;;3.88;3.58;;;;;;;;;;5038221;28;20177;-80
2023/08/20 14:41:00;;;;;;;4.43;3.38;;;;;;;;;;5041061;28;20190;-78